PWSweather.com
Personal Weather Stations
Station Observations
IHTIMAN1
Neighbourhood 1, IhtimanBG 2050

Neighbourhood 1IhtimanBG 2050

Lat: 42.436852, Lon: 23.817921

Elevation: 2066

Station Type: Oregon Scientific WMR968

http://ihtiman-meteo.com

High Low Average
Temperature 44.1°F6.7°C 23.0°F-5.0°C 32.2°F0.1°C
Dew Point 39.4°F4.1°C 22.0°F-5.6°C 30.3°F-0.9°C
Winds 9.5 mph 15.3 kmh Calm Calm 1.0 mph SW1.6 kmh SW
Wind Gusts 10.9 mph17.5 kmh -- 2.0 mph3.2 kmh
Humidity 99% 82% 93%
Pressure 29.74 in1007.1 mb 29.23 in989.8 mb -
Precipitation 0.28 in7.1 mm - -
Hour Temp Dew Point Humidity Winds Wind Gusts Pressure Precip Precip Rate Daily Precip Total
12:00 AM 30.9°F-0.6°C 29.4°F-1.4°C 94% Calm Calm -- 29.71 in1006.1 mb - 0.00 in0.0 mm 0.00 in0.0 mm
12:10 AM 31.3°F-0.4°C 29.8°F-1.2°C 94% Calm Calm -- 29.74 in1007.1 mb - 0.00 in0.0 mm 0.00 in0.0 mm
12:20 AM 31.5°F-0.3°C 29.9°F-1.2°C 94% Calm Calm -- 29.74 in1007.1 mb - 0.00 in0.0 mm 0.00 in0.0 mm
12:30 AM 31.6°F-0.2°C 30.1°F-1.1°C 94% Calm Calm -- 29.74 in1007.1 mb - 0.00 in0.0 mm 0.00 in0.0 mm
12:40 AM 31.6°F-0.2°C 30.4°F-0.9°C 95% Calm Calm -- 29.74 in1007.1 mb - 0.00 in0.0 mm 0.00 in0.0 mm
12:50 AM 31.6°F-0.2°C 30.4°F-0.9°C 95% Calm Calm -- 29.74 in1007.1 mb - 0.00 in0.0 mm 0.00 in0.0 mm
01:00 AM 31.4°F-0.3°C 30.2°F-1.0°C 95% Calm Calm -- 29.74 in1007.1 mb - 0.00 in0.0 mm 0.00 in0.0 mm
01:10 AM 31.2°F-0.4°C 30.0°F-1.1°C 95% Calm Calm -- 29.71 in1006.1 mb - 0.00 in0.0 mm 0.00 in0.0 mm
01:20 AM 31.1°F-0.5°C 29.8°F-1.2°C 95% Calm Calm -- 29.68 in1005.1 mb - 0.00 in0.0 mm 0.00 in0.0 mm
01:30 AM 30.6°F-0.8°C 29.3°F-1.5°C 95% Calm Calm -- 29.68 in1005.1 mb - 0.00 in0.0 mm 0.00 in0.0 mm
01:40 AM 30.2°F-1.0°C 28.9°F-1.7°C 95% Calm Calm -- 29.71 in1006.1 mb - 0.00 in0.0 mm 0.00 in0.0 mm
01:50 AM 30.0°F-1.1°C 28.8°F-1.8°C 95% Calm Calm -- 29.71 in1006.1 mb - 0.00 in0.0 mm 0.00 in0.0 mm
02:00 AM 29.7°F-1.3°C 28.4°F-2.0°C 95% Calm Calm -- 29.71 in1006.1 mb - 0.00 in0.0 mm 0.00 in0.0 mm
02:10 AM 29.5°F-1.4°C 28.2°F-2.1°C 95% Calm Calm -- 29.68 in1005.1 mb - 0.00 in0.0 mm 0.00 in0.0 mm
02:20 AM 28.9°F-1.7°C 27.7°F-2.4°C 95% Calm Calm -- 29.71 in1006.1 mb - 0.00 in0.0 mm 0.00 in0.0 mm
02:30 AM 28.4°F-2.0°C 27.2°F-2.7°C 95% Calm Calm -- 29.71 in1006.1 mb - 0.00 in0.0 mm 0.00 in0.0 mm
02:40 AM 28.0°F-2.2°C 26.8°F-2.9°C 95% Calm Calm -- 29.71 in1006.1 mb - 0.00 in0.0 mm 0.00 in0.0 mm
02:50 AM 27.5°F-2.5°C 26.3°F-3.2°C 95% Calm Calm -- 29.71 in1006.1 mb - 0.00 in0.0 mm 0.00 in0.0 mm
03:00 AM 27.0°F-2.8°C 25.7°F-3.5°C 95% Calm Calm -- 29.71 in1006.1 mb - 0.00 in0.0 mm 0.00 in0.0 mm
03:10 AM 26.8°F-2.9°C 25.5°F-3.6°C 95% Calm Calm -- 29.68 in1005.1 mb - 0.00 in0.0 mm 0.00 in0.0 mm
03:20 AM 26.6°F-3.0°C 25.4°F-3.7°C 95% Calm Calm -- 29.68 in1005.1 mb - 0.00 in0.0 mm 0.00 in0.0 mm
03:30 AM 26.1°F-3.3°C 24.8°F-4.0°C 95% 0.8 mph WSW1.3 kmh WSW 3.6 mph5.8 kmh 29.68 in1005.1 mb - 0.00 in0.0 mm 0.00 in0.0 mm
03:40 AM 25.3°F-3.7°C 24.1°F-4.4°C 95% Calm Calm -- 29.68 in1005.1 mb - 0.00 in0.0 mm 0.00 in0.0 mm
03:50 AM 25.2°F-3.8°C 23.9°F-4.5°C 95% Calm Calm -- 29.68 in1005.1 mb - 0.00 in0.0 mm 0.00 in0.0 mm
04:00 AM 25.2°F-3.8°C 23.9°F-4.5°C 95% Calm Calm -- 29.68 in1005.1 mb - 0.00 in0.0 mm 0.00 in0.0 mm
04:10 AM 25.3°F-3.7°C 24.1°F-4.4°C 95% Calm Calm -- 29.65 in1004.1 mb - 0.00 in0.0 mm 0.00 in0.0 mm
04:20 AM 25.3°F-3.7°C 24.1°F-4.4°C 95% Calm Calm -- 29.65 in1004.1 mb - 0.00 in0.0 mm 0.00 in0.0 mm
04:30 AM 25.2°F-3.8°C 23.9°F-4.5°C 95% Calm Calm -- 29.65 in1004.1 mb - 0.00 in0.0 mm 0.00 in0.0 mm
04:40 AM 25.0°F-3.9°C 24.0°F-4.4°C 96% Calm Calm -- 29.65 in1004.1 mb - 0.00 in0.0 mm 0.00 in0.0 mm
04:50 AM 25.2°F-3.8°C 24.2°F-4.3°C 96% Calm Calm -- 29.65 in1004.1 mb - 0.00 in0.0 mm 0.00 in0.0 mm
05:00 AM 25.2°F-3.8°C 24.2°F-4.3°C 96% Calm Calm -- 29.65 in1004.1 mb - 0.00 in0.0 mm 0.00 in0.0 mm
05:10 AM 25.2°F-3.8°C 24.2°F-4.3°C 96% Calm Calm -- 29.65 in1004.1 mb - 0.00 in0.0 mm 0.00 in0.0 mm
05:20 AM 25.2°F-3.8°C 24.2°F-4.3°C 96% Calm Calm -- 29.62 in1003.0 mb - 0.00 in0.0 mm 0.00 in0.0 mm
05:30 AM 25.2°F-3.8°C 24.2°F-4.3°C 96% Calm Calm -- 29.62 in1003.0 mb - 0.00 in0.0 mm 0.00 in0.0 mm
05:40 AM 25.2°F-3.8°C 24.2°F-4.3°C 96% 0.4 mph S0.6 kmh S 3.1 mph5.0 kmh 29.62 in1003.0 mb - 0.00 in0.0 mm 0.00 in0.0 mm
05:50 AM 25.0°F-3.9°C 24.0°F-4.4°C 96% Calm Calm -- 29.62 in1003.0 mb - 0.00 in0.0 mm 0.00 in0.0 mm
06:00 AM 24.6°F-4.1°C 23.6°F-4.7°C 96% Calm Calm -- 29.62 in1003.0 mb - 0.00 in0.0 mm 0.00 in0.0 mm
06:10 AM 24.4°F-4.2°C 23.5°F-4.7°C 96% Calm Calm -- 29.62 in1003.0 mb - 0.00 in0.0 mm 0.00 in0.0 mm
06:20 AM 24.3°F-4.3°C 23.3°F-4.8°C 96% Calm Calm -- 29.62 in1003.0 mb - 0.00 in0.0 mm 0.00 in0.0 mm
06:30 AM 24.1°F-4.4°C 23.1°F-4.9°C 96% Calm Calm -- 29.62 in1003.0 mb - 0.00 in0.0 mm 0.00 in0.0 mm
06:40 AM 24.3°F-4.3°C 23.3°F-4.8°C 96% Calm Calm -- 29.62 in1003.0 mb - 0.00 in0.0 mm 0.00 in0.0 mm
06:50 AM 24.3°F-4.3°C 23.3°F-4.8°C 96% Calm Calm -- 29.62 in1003.0 mb - 0.00 in0.0 mm 0.00 in0.0 mm
07:00 AM 24.3°F-4.3°C 23.3°F-4.8°C 96% Calm Calm -- 29.62 in1003.0 mb - 0.00 in0.0 mm 0.00 in0.0 mm
07:10 AM 23.9°F-4.5°C 23.0°F-5.0°C 96% Calm Calm -- 29.62 in1003.0 mb - 0.00 in0.0 mm 0.00 in0.0 mm
07:20 AM 23.8°F-4.6°C 22.8°F-5.1°C 96% Calm Calm -- 29.59 in1002.0 mb - 0.00 in0.0 mm 0.00 in0.0 mm
07:30 AM 23.7°F-4.6°C 22.7°F-5.2°C 96% Calm Calm -- 29.59 in1002.0 mb - 0.00 in0.0 mm 0.00 in0.0 mm
07:40 AM 23.5°F-4.7°C 22.6°F-5.2°C 96% Calm Calm -- 29.59 in1002.0 mb - 0.00 in0.0 mm 0.00 in0.0 mm
07:50 AM 23.5°F-4.7°C 22.6°F-5.2°C 96% Calm Calm -- 29.59 in1002.0 mb - 0.00 in0.0 mm 0.00 in0.0 mm
08:00 AM 23.2°F-4.9°C 22.2°F-5.4°C 96% Calm Calm -- 29.59 in1002.0 mb - 0.00 in0.0 mm 0.00 in0.0 mm
08:10 AM 23.0°F-5.0°C 22.0°F-5.6°C 96% Calm Calm 2.7 mph4.3 kmh 29.59 in1002.0 mb - 0.00 in0.0 mm 0.00 in0.0 mm
08:20 AM 23.0°F-5.0°C 22.0°F-5.6°C 96% Calm Calm -- 29.59 in1002.0 mb - 0.00 in0.0 mm 0.00 in0.0 mm
08:30 AM 23.0°F-5.0°C 22.0°F-5.6°C 96% Calm Calm -- 29.59 in1002.0 mb - 0.00 in0.0 mm 0.00 in0.0 mm
08:40 AM 23.0°F-5.0°C 22.0°F-5.6°C 96% Calm Calm -- 29.59 in1002.0 mb - 0.00 in0.0 mm 0.00 in0.0 mm
08:50 AM 23.2°F-4.9°C 22.2°F-5.4°C 96% Calm Calm -- 29.59 in1002.0 mb - 0.00 in0.0 mm 0.00 in0.0 mm
09:00 AM 23.4°F-4.8°C 22.4°F-5.3°C 96% Calm Calm -- 29.59 in1002.0 mb - 0.00 in0.0 mm 0.00 in0.0 mm
09:10 AM 23.5°F-4.7°C 22.6°F-5.2°C 96% Calm Calm 2.7 mph4.3 kmh 29.59 in1002.0 mb - 0.00 in0.0 mm 0.00 in0.0 mm
09:20 AM 23.9°F-4.5°C 23.2°F-4.9°C 97% Calm Calm 3.6 mph5.8 kmh 29.59 in1002.0 mb - 0.00 in0.0 mm 0.00 in0.0 mm
09:30 AM 24.1°F-4.4°C 23.4°F-4.8°C 97% Calm Calm -- 29.59 in1002.0 mb - 0.00 in0.0 mm 0.00 in0.0 mm
09:40 AM 24.6°F-4.1°C 23.8°F-4.6°C 97% Calm Calm -- 29.59 in1002.0 mb - 0.00 in0.0 mm 0.00 in0.0 mm
09:50 AM 25.5°F-3.6°C 24.8°F-4.0°C 97% Calm Calm -- 29.59 in1002.0 mb - 0.00 in0.0 mm 0.00 in0.0 mm
10:00 AM 25.5°F-3.6°C 24.8°F-4.0°C 97% Calm Calm -- 29.59 in1002.0 mb - 0.00 in0.0 mm 0.00 in0.0 mm
10:10 AM 25.3°F-3.7°C 24.6°F-4.1°C 97% Calm Calm -- 29.59 in1002.0 mb - 0.00 in0.0 mm 0.00 in0.0 mm
10:20 AM 25.9°F-3.4°C 25.4°F-3.7°C 98% Calm Calm -- 29.56 in1001.0 mb - 0.00 in0.0 mm 0.00 in0.0 mm
10:30 AM 26.2°F-3.2°C 25.8°F-3.4°C 98% Calm Calm -- 29.56 in1001.0 mb - 0.00 in0.0 mm 0.00 in0.0 mm
10:40 AM 27.4°F-2.6°C 26.9°F-2.8°C 98% Calm Calm -- 29.56 in1001.0 mb - 0.00 in0.0 mm 0.00 in0.0 mm
10:50 AM 28.6°F-1.9°C 28.1°F-2.2°C 98% Calm Calm -- 29.53 in1000.0 mb - 0.00 in0.0 mm 0.00 in0.0 mm
11:00 AM 29.1°F-1.6°C 28.6°F-1.9°C 98% Calm Calm -- 29.53 in1000.0 mb - 0.00 in0.0 mm 0.00 in0.0 mm
11:10 AM 29.4°F-1.4°C 29.0°F-1.7°C 98% Calm Calm -- 29.53 in1000.0 mb - 0.00 in0.0 mm 0.00 in0.0 mm
11:20 AM 31.4°F-0.3°C 31.2°F-0.4°C 99% Calm Calm -- 29.53 in1000.0 mb - 0.00 in0.0 mm 0.00 in0.0 mm
11:30 AM 33.1°F0.6°C 32.8°F0.4°C 99% Calm Calm 2.7 mph4.3 kmh 29.53 in1000.0 mb - 0.00 in0.0 mm 0.00 in0.0 mm
11:40 AM 32.7°F0.4°C 32.2°F0.1°C 98% Calm Calm 2.7 mph4.3 kmh 29.50 in999.0 mb - 0.00 in0.0 mm 0.00 in0.0 mm
11:50 AM 33.3°F0.7°C 32.5°F0.3°C 97% Calm Calm -- 29.50 in999.0 mb - 0.00 in0.0 mm 0.00 in0.0 mm
12:00 PM 33.8°F1.0°C 33.0°F0.6°C 97% Calm Calm -- 29.50 in999.0 mb - 0.00 in0.0 mm 0.00 in0.0 mm
12:10 PM 34.0°F1.1°C 33.0°F0.6°C 96% Calm Calm 2.2 mph3.5 kmh 29.50 in999.0 mb - 0.00 in0.0 mm 0.00 in0.0 mm
12:20 PM 34.0°F1.1°C 33.0°F0.6°C 96% Calm Calm -- 29.50 in999.0 mb - 0.00 in0.0 mm 0.00 in0.0 mm
12:30 PM 35.5°F1.9°C 34.8°F1.6°C 97% Calm Calm -- 29.50 in999.0 mb - 0.00 in0.0 mm 0.00 in0.0 mm
12:40 PM 38.5°F3.6°C 37.2°F2.9°C 95% 2.2 mph SE3.5 kmh SE 4.0 mph6.4 kmh 29.47 in998.0 mb - 0.00 in0.0 mm 0.00 in0.0 mm
12:50 PM 39.9°F4.4°C 37.2°F2.9°C 90% 0.3 mph SE0.5 kmh SE -- 29.47 in998.0 mb - 0.00 in0.0 mm 0.00 in0.0 mm
01:00 PM 40.7°F4.8°C 37.4°F3.0°C 88% Calm Calm 2.2 mph3.5 kmh 29.47 in998.0 mb - 0.00 in0.0 mm 0.00 in0.0 mm
01:10 PM 41.4°F5.2°C 38.2°F3.4°C 88% 2.2 mph SE3.5 kmh SE 3.1 mph5.0 kmh 29.44 in997.0 mb - 0.00 in0.0 mm 0.00 in0.0 mm
01:20 PM 43.3°F6.3°C 39.4°F4.1°C 86% 3.8 mph SE6.1 kmh SE 5.4 mph8.7 kmh 29.44 in997.0 mb - 0.00 in0.0 mm 0.00 in0.0 mm
01:30 PM 44.1°F6.7°C 39.3°F4.1°C 83% 4.0 mph SSE6.4 kmh SSE 5.8 mph9.3 kmh 29.44 in997.0 mb - 0.00 in0.0 mm 0.00 in0.0 mm
01:40 PM 43.7°F6.5°C 38.6°F3.7°C 82% 0.1 mph SW0.2 kmh SW 4.0 mph6.4 kmh 29.44 in997.0 mb - 0.00 in0.0 mm 0.00 in0.0 mm
01:50 PM 42.3°F5.7°C 37.2°F2.9°C 82% Calm Calm 3.6 mph5.8 kmh 29.41 in995.9 mb - 0.00 in0.0 mm 0.00 in0.0 mm
02:00 PM 41.4°F5.2°C 36.7°F2.6°C 83% 4.8 mph S7.7 kmh S 5.8 mph9.3 kmh 29.41 in995.9 mb - 0.00 in0.0 mm 0.00 in0.0 mm
02:10 PM 40.3°F4.6°C 35.9°F2.2°C 84% 4.4 mph SE7.1 kmh SE 8.3 mph13.4 kmh 29.41 in995.9 mb - 0.00 in0.0 mm 0.00 in0.0 mm
02:20 PM 39.9°F4.4°C 35.8°F2.1°C 85% 3.6 mph SSE5.8 kmh SSE 5.8 mph9.3 kmh 29.41 in995.9 mb - 0.00 in0.0 mm 0.00 in0.0 mm
02:30 PM 39.9°F4.4°C 36.1°F2.3°C 86% 4.1 mph SE6.6 kmh SE 7.6 mph12.2 kmh 29.41 in995.9 mb - 0.00 in0.0 mm 0.00 in0.0 mm
02:40 PM 39.9°F4.4°C 36.1°F2.3°C 86% 3.9 mph SSE6.3 kmh SSE 5.4 mph8.7 kmh 29.38 in994.9 mb - 0.00 in0.0 mm 0.00 in0.0 mm
02:50 PM 40.1°F4.5°C 36.5°F2.5°C 87% 0.5 mph SSE0.8 kmh SSE 3.6 mph5.8 kmh 29.38 in994.9 mb - 0.00 in0.0 mm 0.00 in0.0 mm
03:00 PM 40.6°F4.8°C 37.1°F2.8°C 87% 0.6 mph SSE1.0 kmh SSE 4.0 mph6.4 kmh 29.38 in994.9 mb - 0.00 in0.0 mm 0.00 in0.0 mm
03:10 PM 40.8°F4.9°C 37.0°F2.8°C 86% 4.0 mph SSE6.4 kmh SSE 6.7 mph10.8 kmh 29.35 in993.9 mb - 0.00 in0.0 mm 0.00 in0.0 mm
03:20 PM 41.2°F5.1°C 37.3°F2.9°C 86% 3.1 mph SE5.0 kmh SE 4.5 mph7.2 kmh 29.35 in993.9 mb - 0.00 in0.0 mm 0.00 in0.0 mm
03:30 PM 41.0°F5.0°C 36.5°F2.5°C 84% 3.6 mph SE5.8 kmh SE 5.8 mph9.3 kmh 29.35 in993.9 mb - 0.00 in0.0 mm 0.00 in0.0 mm
03:40 PM 40.8°F4.9°C 36.4°F2.4°C 84% 3.6 mph SE5.8 kmh SE 4.0 mph6.4 kmh 29.35 in993.9 mb - 0.00 in0.0 mm 0.00 in0.0 mm
03:50 PM 40.5°F4.7°C 36.3°F2.4°C 85% 4.5 mph SE7.2 kmh SE 4.9 mph7.9 kmh 29.32 in992.9 mb - 0.00 in0.0 mm 0.00 in0.0 mm
04:00 PM 40.8°F4.9°C 36.7°F2.6°C 85% 3.4 mph SE5.5 kmh SE 5.4 mph8.7 kmh 29.32 in992.9 mb - 0.00 in0.0 mm 0.00 in0.0 mm
04:10 PM 40.6°F4.8°C 36.5°F2.5°C 85% 2.3 mph SSE3.7 kmh SSE 3.6 mph5.8 kmh 29.32 in992.9 mb - 0.00 in0.0 mm 0.00 in0.0 mm
04:20 PM 40.5°F4.7°C 36.3°F2.4°C 85% 2.4 mph SSE3.9 kmh SSE 4.0 mph6.4 kmh 29.32 in992.9 mb - 0.00 in0.0 mm 0.00 in0.0 mm
04:30 PM 40.1°F4.5°C 36.2°F2.3°C 86% 2.9 mph SSE4.7 kmh SSE 2.7 mph4.3 kmh 29.32 in992.9 mb - 0.00 in0.0 mm 0.00 in0.0 mm
04:40 PM 39.7°F4.3°C 35.9°F2.2°C 86% Calm Calm 3.6 mph5.8 kmh 29.29 in991.9 mb - 0.00 in0.0 mm 0.00 in0.0 mm
04:50 PM 39.4°F4.1°C 35.5°F1.9°C 86% Calm Calm 3.1 mph5.0 kmh 29.29 in991.9 mb - 0.00 in0.0 mm 0.00 in0.0 mm
05:00 PM 39.2°F4.0°C 35.4°F1.9°C 86% Calm Calm -- 29.29 in991.9 mb - 0.00 in0.0 mm 0.00 in0.0 mm
05:10 PM 38.8°F3.8°C 35.0°F1.7°C 86% Calm Calm -- 29.29 in991.9 mb - 0.00 in0.0 mm 0.00 in0.0 mm
05:20 PM 38.5°F3.6°C 34.7°F1.5°C 86% Calm Calm -- 29.26 in990.9 mb - 0.00 in0.0 mm 0.00 in0.0 mm
05:30 PM 38.3°F3.5°C 34.5°F1.4°C 86% Calm Calm -- 29.26 in990.9 mb - 0.00 in0.0 mm 0.00 in0.0 mm
05:40 PM 38.1°F3.4°C 34.3°F1.3°C 86% 0.4 mph ENE0.6 kmh ENE 3.6 mph5.8 kmh 29.29 in991.9 mb - 0.00 in0.0 mm 0.00 in0.0 mm
05:50 PM 38.1°F3.4°C 34.3°F1.3°C 86% 0.4 mph SSE0.6 kmh SSE 3.6 mph5.8 kmh 29.26 in990.9 mb - 0.00 in0.0 mm 0.00 in0.0 mm
06:00 PM 37.8°F3.2°C 34.2°F1.2°C 87% 2.6 mph S4.2 kmh S 3.6 mph5.8 kmh 29.26 in990.9 mb - 0.00 in0.0 mm 0.00 in0.0 mm
06:10 PM 37.8°F3.2°C 34.2°F1.2°C 87% 2.2 mph S3.5 kmh S 3.6 mph5.8 kmh 29.26 in990.9 mb - 0.00 in0.0 mm 0.00 in0.0 mm
06:20 PM 37.8°F3.2°C 34.5°F1.4°C 88% 3.8 mph SE6.1 kmh SE 5.8 mph9.3 kmh 29.29 in991.9 mb - 0.00 in0.0 mm 0.00 in0.0 mm
06:30 PM 37.6°F3.1°C 34.3°F1.3°C 88% 4.3 mph SE6.9 kmh SE 3.6 mph5.8 kmh 29.29 in991.9 mb - 0.00 in0.0 mm 0.00 in0.0 mm
06:40 PM 37.2°F2.9°C 34.0°F1.1°C 88% Calm Calm -- 29.26 in990.9 mb - 0.00 in0.0 mm 0.00 in0.0 mm
06:50 PM 37.0°F2.8°C 33.8°F1.0°C 88% Calm Calm -- 29.26 in990.9 mb - 0.00 in0.0 mm 0.00 in0.0 mm
07:00 PM 36.9°F2.7°C 33.9°F1.1°C 89% Calm Calm -- 29.26 in990.9 mb - 0.00 in0.0 mm 0.00 in0.0 mm
07:10 PM 36.7°F2.6°C 33.8°F1.0°C 89% Calm Calm 2.2 mph3.5 kmh 29.26 in990.9 mb - 0.00 in0.0 mm 0.00 in0.0 mm
07:20 PM 36.3°F2.4°C 33.7°F0.9°C 90% 0.5 mph SSE0.8 kmh SSE 3.6 mph5.8 kmh 29.23 in989.8 mb - 0.00 in0.0 mm 0.00 in0.0 mm
07:30 PM 36.3°F2.4°C 33.7°F0.9°C 90% 2.4 mph ESE3.9 kmh ESE 3.1 mph5.0 kmh 29.23 in989.8 mb - 0.05 in1.3 mm 0.05 in1.3 mm
07:40 PM 36.3°F2.4°C 33.7°F0.9°C 90% 2.2 mph SE3.5 kmh SE 4.0 mph6.4 kmh 29.23 in989.8 mb - 0.00 in0.0 mm 0.05 in1.3 mm
07:50 PM 36.3°F2.4°C 33.7°F0.9°C 90% Calm Calm -- 29.23 in989.8 mb - 0.00 in0.0 mm 0.05 in1.3 mm
08:00 PM 36.3°F2.4°C 33.9°F1.1°C 91% Calm Calm -- 29.23 in989.8 mb - 0.00 in0.0 mm 0.05 in1.3 mm
08:10 PM 36.3°F2.4°C 33.9°F1.1°C 91% Calm Calm -- 29.23 in989.8 mb - 0.00 in0.0 mm 0.05 in1.3 mm
08:20 PM 36.1°F2.3°C 34.0°F1.1°C 92% Calm Calm -- 29.23 in989.8 mb - 0.00 in0.0 mm 0.05 in1.3 mm
08:30 PM 36.0°F2.2°C 33.9°F1.1°C 92% Calm Calm 2.2 mph3.5 kmh 29.23 in989.8 mb - 0.00 in0.0 mm 0.05 in1.3 mm
08:40 PM 35.8°F2.1°C 33.7°F0.9°C 92% 5.4 mph N8.7 kmh N 10.1 mph16.3 kmh 29.23 in989.8 mb - 0.00 in0.0 mm 0.05 in1.3 mm
08:50 PM 36.3°F2.4°C 34.5°F1.4°C 93% 5.1 mph NNW8.2 kmh NNW 10.5 mph16.9 kmh 29.26 in990.9 mb - 0.00 in0.0 mm 0.05 in1.3 mm
09:00 PM 36.3°F2.4°C 34.5°F1.4°C 93% 5.0 mph N8.0 kmh N 8.3 mph13.4 kmh 29.26 in990.9 mb - 0.09 in2.3 mm 0.14 in3.6 mm
09:10 PM 36.0°F2.2°C 34.1°F1.2°C 93% 4.5 mph N7.2 kmh N 10.1 mph16.3 kmh 29.26 in990.9 mb - 0.05 in1.3 mm 0.19 in4.8 mm
09:20 PM 35.4°F1.9°C 33.9°F1.1°C 94% 2.9 mph NNW4.7 kmh NNW 8.7 mph14.0 kmh 29.26 in990.9 mb - 0.00 in0.0 mm 0.19 in4.8 mm
09:30 PM 35.1°F1.7°C 33.5°F0.8°C 94% 5.5 mph NNW8.9 kmh NNW 7.2 mph11.6 kmh 29.26 in990.9 mb - 0.05 in1.3 mm 0.24 in6.1 mm
09:40 PM 34.9°F1.6°C 33.3°F0.7°C 94% 2.8 mph NNW4.5 kmh NNW 9.6 mph15.4 kmh 29.26 in990.9 mb - 0.00 in0.0 mm 0.24 in6.1 mm
09:50 PM 34.7°F1.5°C 33.2°F0.7°C 94% 2.9 mph N4.7 kmh N 5.4 mph8.7 kmh 29.29 in991.9 mb - 0.00 in0.0 mm 0.24 in6.1 mm
10:00 PM 34.5°F1.4°C 33.0°F0.6°C 94% Calm Calm 2.2 mph3.5 kmh 29.29 in991.9 mb - 0.00 in0.0 mm 0.24 in6.1 mm
10:10 PM 34.5°F1.4°C 33.2°F0.7°C 95% 5.0 mph N8.0 kmh N 10.5 mph16.9 kmh 29.29 in991.9 mb - 0.00 in0.0 mm 0.24 in6.1 mm
10:20 PM 34.5°F1.4°C 33.2°F0.7°C 95% 5.8 mph N9.3 kmh N 10.5 mph16.9 kmh 29.29 in991.9 mb - 0.00 in0.0 mm 0.24 in6.1 mm
10:30 PM 34.7°F1.5°C 33.4°F0.8°C 95% 9.5 mph NNW15.3 kmh NNW 10.9 mph17.5 kmh 29.29 in991.9 mb - 0.00 in0.0 mm 0.24 in6.1 mm
10:40 PM 34.7°F1.5°C 33.4°F0.8°C 95% 8.4 mph NNW13.5 kmh NNW 10.9 mph17.5 kmh 29.29 in991.9 mb - 0.00 in0.0 mm 0.24 in6.1 mm
10:50 PM 34.3°F1.3°C 33.1°F0.6°C 95% Calm Calm 2.2 mph3.5 kmh 29.32 in992.9 mb - 0.00 in0.0 mm 0.24 in6.1 mm
11:00 PM 34.0°F1.1°C 32.7°F0.4°C 95% 5.1 mph NNW8.2 kmh NNW 6.3 mph10.1 kmh 29.32 in992.9 mb - 0.05 in1.3 mm 0.28 in7.1 mm
11:10 PM 34.0°F1.1°C 32.7°F0.4°C 95% 4.5 mph NNW7.2 kmh NNW 7.2 mph11.6 kmh 29.32 in992.9 mb - 0.00 in0.0 mm 0.28 in7.1 mm
11:20 PM 34.0°F1.1°C 33.0°F0.6°C 96% 0.3 mph NW0.5 kmh NW 3.1 mph5.0 kmh 29.32 in992.9 mb - 0.00 in0.0 mm 0.28 in7.1 mm
11:30 PM 34.0°F1.1°C 33.0°F0.6°C 96% 8.5 mph NW13.7 kmh NW 10.9 mph17.5 kmh 29.32 in992.9 mb - 0.00 in0.0 mm 0.28 in7.1 mm
11:40 PM 34.0°F1.1°C 33.0°F0.6°C 96% 4.9 mph NNW7.9 kmh NNW 10.9 mph17.5 kmh 29.32 in992.9 mb - 0.00 in0.0 mm 0.28 in7.1 mm
11:50 PM 34.0°F1.1°C 33.0°F0.6°C 96% 8.3 mph N13.4 kmh N 10.5 mph16.9 kmh 29.32 in992.9 mb - 0.00 in0.0 mm 0.28 in7.1 mm